Tejeda Heliport

ES-0308 · Las Palmas, Wyspy Kanaryjskie, Hiszpania

Historia METAR ES-0308 · Tejeda Heliport

Poniżej widzisz METAR-y z ostatnich kilku dni. Wybierz rok, aby przeglądać starsze METAR-y, począwszy od roku 2007.

15 lipca 2024

Czas Kod Pogoda Temp. Widoczność Sufit Wiatr METAR/SPECI
12:00
V
28 °C 10 km+ - 010° 010° 25 kt METAR GCLP 151100Z 01025KT CAVOK 28/15 Q1017 NOSIG
11:30
V
28 °C 10 km+ - 020° 020° 23 kt METAR GCLP 151030Z 02023KT 9999 FEW020 28/14 Q1017 NOSIG
11:00
V
28 °C 10 km+ - 010° 010° 22 kt METAR GCLP 151000Z 01022KT CAVOK 28/14 Q1017 NOSIG
10:30
V
27 °C 10 km+ - 010° 010° 21 kt METAR GCLP 150930Z 01021KT 9999 FEW020 27/15 Q1017 NOSIG
10:00
V
26 °C 10 km+ - 010° 010° 21 kt METAR GCLP 150900Z 01021KT 9999 FEW020 26/16 Q1017 NOSIG
09:30
V
25 °C 10 km+ - 010° 010° 20 kt METAR GCLP 150830Z 01020KT 9999 FEW020 25/17 Q1017 NOSIG
09:00
V
23 °C 10 km+ - 020° 020° 21 kt METAR GCLP 150800Z 02021KT 9999 FEW020 23/18 Q1017 NOSIG
08:30
V
22 °C 10 km+ - 020° 020° 19 kt METAR GCLP 150730Z 02019KT 9999 FEW020 22/18 Q1017 NOSIG
08:00
V
22 °C 10 km+ - 020° 020° 18 kt METAR GCLP 150700Z 02018KT 9999 FEW020 22/16 Q1016 NOSIG
07:30
V
21 °C 10 km+ - 020° 020° 19 kt METAR GCLP 150630Z 02019KT 9999 FEW020 21/17 Q1016 NOSIG
07:00
V
21 °C 10 km+ - 020° 020° 18 kt METAR GCLP 150600Z 02018KT 9999 FEW020 21/17 Q1016 NOSIG
06:30
V
22 °C 10 km+ - 020° 020° 17 kt METAR GCLP 150530Z 02017KT 9999 FEW020 22/16 Q1016 NOSIG
06:00
V
21 °C 10 km+ - 010° 010° 19 kt METAR GCLP 150500Z 01019KT 9999 FEW020 21/17 Q1015 NOSIG
05:30
V
21 °C 10 km+ - 010° 010° 22 kt METAR GCLP 150430Z 01022KT 9999 FEW020 21/17 Q1015 NOSIG
05:00
V
21 °C 10 km+ - 020° 020° 19 kt METAR GCLP 150400Z 02019KT 9999 FEW020 21/17 Q1015 NOSIG
04:30
V
21 °C 10 km+ - 020° 020° 20 kt METAR GCLP 150330Z 02020KT CAVOK 21/17 Q1015 NOSIG
04:00
V
21 °C 10 km+ - 020° 020° 20 kt METAR GCLP 150300Z 02020KT CAVOK 21/18 Q1015 NOSIG
03:30
V
21 °C 10 km+ - 010° 010° 20 kt METAR GCLP 150230Z 01020KT 9999 FEW025 21/18 Q1015 NOSIG
03:00
V
21 °C 10 km+ - 010° 010° 20 kt METAR GCLP 150200Z 01020KT 9999 FEW025 21/18 Q1016 NOSIG
02:30
V
21 °C 10 km+ - 010° 010° 20 kt METAR GCLP 150130Z 01020KT 9999 FEW025 21/17 Q1016 NOSIG
02:00
V
21 °C 10 km+ - 010° 010° 18 kt METAR GCLP 150100Z 01018KT 9999 FEW025 21/17 Q1016 NOSIG
01:30
V
21 °C 10 km+ - 010° 010° 20 kt METAR GCLP 150030Z 01020KT 9999 FEW025 21/18 Q1016 NOSIG
01:00
V
21 °C 10 km+ - 010° 010° 21 kt METAR GCLP 150000Z 01021KT 9999 FEW020 21/18 Q1016 NOSIG
00:30
V
21 °C 10 km+ - 010° 010° 21 kt METAR GCLP 142330Z 01021KT 9999 FEW022 21/18 Q1016 NOSIG
00:00
V
21 °C 10 km+ - 020° 020° 22 kt METAR GCLP 142300Z 02022KT 9999 FEW022 21/18 Q1016 NOSIG

14 lipca 2024

Czas Kod Pogoda Temp. Widoczność Sufit Wiatr METAR/SPECI
23:30
V
21 °C 10 km+ - 020° 020° 20 kt METAR GCLP 142230Z 02020KT 9999 FEW025 21/18 Q1016 NOSIG
23:00
V
21 °C 10 km+ - 020° 020° 23 kt METAR GCLP 142200Z 02023KT 9999 FEW025 21/18 Q1016 NOSIG
22:30
V
21 °C 10 km+ - 020° 020° 21 kt METAR GCLP 142130Z 02021KT 9999 FEW025 21/18 Q1016 NOSIG
22:00
V
22 °C 10 km+ - 020° 020° 23 kt METAR GCLP 142100Z 02023KT 9999 FEW025 22/18 Q1016 NOSIG
21:30
V
22 °C 10 km+ - 020° 020° 24 kt METAR GCLP 142030Z 02024KT 9999 FEW025 22/18 Q1015 NOSIG
21:00
V
22 °C 10 km+ - 020° 020° 24 kt METAR GCLP 142000Z 02024KT 9999 FEW025 22/18 Q1015 NOSIG
20:30
V
22 °C 10 km+ - 020° 020° 23 kt METAR GCLP 141930Z 02023KT 9999 FEW025 22/18 Q1015 NOSIG
20:00
V
23 °C 10 km+ - 020° 020° 24 kt METAR GCLP 141900Z 02024KT 9999 FEW025 23/18 Q1014 NOSIG
19:30
V
23 °C 10 km+ - 020° 020° 22 kt METAR GCLP 141830Z 02022KT 9999 FEW025 23/18 Q1014 NOSIG
19:00
V
23 °C 10 km+ - 030° 030° 24 kt METAR GCLP 141800Z 03024KT 9999 FEW020 23/18 Q1014 NOSIG
18:30
V
23 °C 10 km+ - 030° 030° 24 kt METAR GCLP 141730Z 03024KT CAVOK 23/19 Q1014 NOSIG
18:00
V
24 °C 10 km+ - 030° 030° 24 kt METAR GCLP 141700Z 03024KT CAVOK 24/19 Q1014 NOSIG
17:30
V
25 °C 10 km+ - 030° 030° 24 kt METAR GCLP 141630Z 03024KT CAVOK 25/19 Q1014 NOSIG
17:00
V
25 °C 10 km+ - 020° 020° 23 kt METAR GCLP 141600Z 02023KT CAVOK 25/18 Q1014 NOSIG
16:30
V
25 °C 10 km+ - 030° 030° 24 kt METAR GCLP 141530Z 03024KT CAVOK 25/19 Q1014 NOSIG
16:00
V
24 °C 10 km+ - 030° 030° 23 kt METAR GCLP 141500Z 03023KT CAVOK 24/18 Q1014 NOSIG
15:30
V
25 °C 10 km+ - 030° 030° 22 kt METAR GCLP 141430Z 03022KT CAVOK 25/18 Q1014 NOSIG
15:00
V
24 °C 10 km+ - 030° 030° 23 kt METAR GCLP 141400Z 03023KT 9999 FEW020 24/18 Q1015 NOSIG
14:30
V
25 °C 10 km+ - 030° 030° 22 kt METAR GCLP 141330Z 03022KT 9999 FEW020 25/18 Q1015 NOSIG
14:00
V
25 °C 10 km+ - 030° 030° 22 kt METAR GCLP 141300Z 03022KT 9999 FEW020 25/18 Q1015 NOSIG
13:30
V
24 °C 10 km+ - 030° 030° 23 kt METAR GCLP 141230Z 03023KT 9999 FEW020 24/18 Q1015 NOSIG
13:00
V
24 °C 10 km+ - 030° 030° 24 kt METAR GCLP 141200Z 03024KT 9999 FEW020 24/18 Q1015 NOSIG
12:30
V
24 °C 10 km+ - 030° 030° 23 kt METAR GCLP 141130Z 03023KT 9999 FEW020 24/18 Q1016 NOSIG
12:00
V
24 °C 10 km+ - 030° 030° 21 kt METAR GCLP 141100Z 03021KT 9999 FEW020 24/18 Q1016 NOSIG
11:30
V
23 °C 10 km+ - 030° 030° 22 kt METAR GCLP 141030Z 03022KT 9999 FEW020 23/18 Q1016 NOSIG
11:00
V
24 °C 10 km+ - 030° 030° 20 kt METAR GCLP 141000Z 03020KT 9999 FEW020 24/18 Q1016 NOSIG
10:30
V
23 °C 10 km+ - 030° 030° 22 kt METAR GCLP 140930Z 03022KT 9999 FEW015 23/18 Q1015 NOSIG
10:00
V
23 °C 10 km+ - 020° 020° 22 kt METAR GCLP 140900Z 02022KT 9999 FEW015 23/18 Q1015 NOSIG
09:30
V
22 °C 10 km+ - 020° 020° 22 kt METAR GCLP 140830Z 02022KT 9999 SCT015 22/17 Q1015 NOSIG
09:13
V
22 °C 10 km+ - 010° 010° 22 kt SPECI GCLP 140813Z 01022KT 9999 SCT013 22/18 Q1015 NOSIG
09:00
M
21 °C 10 km+ 1.300 ft 010° 010° 21 kt METAR GCLP 140800Z 01021KT 9999 BKN013 21/18 Q1015 NOSIG
08:30
M
21 °C 10 km+ 1.300 ft 010° 010° 22 kt METAR GCLP 140730Z 01022KT 9999 BKN013 21/18 Q1014 NOSIG
08:00
M
21 °C 10 km+ 1.200 ft 010° 010° 21 kt METAR GCLP 140700Z 01021KT 9999 BKN012 21/18 Q1014 NOSIG
07:30
M
21 °C 10 km+ 1.200 ft 010° 010° 17 kt METAR GCLP 140630Z 01017KT 9999 BKN012 21/18 Q1014 NOSIG
07:00
M
21 °C 10 km+ 1.300 ft 010° 010° 21 kt METAR GCLP 140600Z 01021KT 9999 BKN013 21/18 Q1014 NOSIG
06:49
M
21 °C 10 km+ 1.300 ft 010° 010° 20 kt SPECI GCLP 140549Z 01020KT 9999 BKN013 21/18 Q1014 NOSIG
06:30
M
21 °C 10 km+ 2.000 ft 010° 010° 20 kt METAR GCLP 140530Z 01020KT 9999 SCT014 BKN020 21/18 Q1013 NOSIG
06:00
M
21 °C 10 km+ 2.000 ft 010° 010° 20 kt METAR GCLP 140500Z 01020KT 9999 SCT014 BKN020 21/18 Q1013 NOSIG
05:30
M
21 °C 10 km+ 2.000 ft 010° 010° 19 kt METAR GCLP 140430Z 01019KT 9999 SCT013 BKN020 21/18 Q1013 NOSIG
05:00
V
21 °C 10 km+ - 010° 010° 21 kt METAR GCLP 140400Z 01021KT 9999 SCT013 SCT020 21/18 Q1013 NOSIG
04:30
V
21 °C 10 km+ - 020° 020° 21 kt METAR GCLP 140330Z 02021KT 9999 FEW010 SCT020 21/18 Q1013 NOSIG
04:00
V
21 °C 10 km+ - 010° 010° 22 kt METAR GCLP 140300Z 01022KT 9999 FEW010 SCT020 21/18 Q1013 NOSIG
03:30
V
21 °C 10 km+ - 010° 010° 21 kt METAR GCLP 140230Z 01021KT 9999 FEW010 SCT020 21/18 Q1013 NOSIG
03:00
V
21 °C 10 km+ - 020° 020° 21 kt METAR GCLP 140200Z 02021KT 9999 FEW010 SCT020 21/18 Q1013 NOSIG
02:30
V
21 °C 10 km+ - 020° 020° 20 kt METAR GCLP 140130Z 02020KT 9999 FEW025 21/18 Q1013 NOSIG
02:00
V
21 °C 10 km+ - 010° 010° 23 kt METAR GCLP 140100Z 01023KT 9999 FEW025 21/18 Q1013 NOSIG
01:30
V
21 °C 10 km+ - 020° 020° 22 kt METAR GCLP 140030Z 02022KT 9999 FEW030 21/18 Q1014 NOSIG
01:00
V
21 °C 10 km+ - 010° 010° 23 kt METAR GCLP 140000Z 01023KT 9999 FEW030 21/18 Q1014 NOSIG
00:30
V
21 °C 10 km+ - 010° 010° 22 kt METAR GCLP 132330Z 01022KT 9999 FEW030 21/18 Q1014 NOSIG
00:00
V
21 °C 10 km+ - 020° 020° 22 kt METAR GCLP 132300Z 02022KT 9999 FEW030 21/18 Q1014 NOSIG

13 lipca 2024

Czas Kod Pogoda Temp. Widoczność Sufit Wiatr METAR/SPECI
23:30
V
21 °C 10 km+ - 020° 020° 22 kt METAR GCLP 132230Z 02022KT 9999 FEW030 21/18 Q1014 NOSIG
23:00
V
22 °C 10 km+ - 010° 010° 21 kt METAR GCLP 132200Z 01021KT 9999 FEW030 22/18 Q1014 NOSIG
22:30
V
22 °C 10 km+ - 020° 020° 23 kt METAR GCLP 132130Z 02023KT 9999 FEW030 22/18 Q1014 NOSIG
22:00
V
22 °C 10 km+ - 020° 020° 22 kt METAR GCLP 132100Z 02022KT 9999 FEW030 22/18 Q1014 NOSIG
21:30
V
22 °C 10 km+ - 020° 020° 23 kt METAR GCLP 132030Z 02023KT 9999 FEW030 22/18 Q1014 NOSIG
21:00
V
22 °C 10 km+ - 020° 020° 24 kt METAR GCLP 132000Z 02024KT 9999 FEW030 22/18 Q1014 NOSIG
20:30
V
23 °C 10 km+ - 020° 020° 24 kt METAR GCLP 131930Z 02024KT 9999 FEW030 23/18 Q1013 NOSIG
20:00
V
23 °C 10 km+ - 020° 020° 23 kt METAR GCLP 131900Z 02023KT 9999 FEW030 23/18 Q1013 NOSIG
19:30
V
23 °C 10 km+ - 020° 020° 25 kt METAR GCLP 131830Z 02025KT 9999 FEW030 23/18 Q1013 NOSIG
19:00
V
24 °C 10 km+ - 020° 020° 27 kt METAR GCLP 131800Z 02027KT 9999 FEW030 24/18 Q1013 NOSIG
18:30
V
24 °C 10 km+ - 020° 020° 26 kt METAR GCLP 131730Z 02026KT 9999 FEW035 24/18 Q1013 NOSIG
18:00
V
25 °C 10 km+ - 020° 020° 26 kt METAR GCLP 131700Z 02026KT 9999 FEW035 25/18 Q1013 NOSIG
17:30
V
24 °C 10 km+ - 030° 030° 27 kt METAR GCLP 131630Z 03027KT 9999 FEW035 24/19 Q1013 NOSIG
17:00
V
25 °C 10 km+ - 030° 030° 27 kt METAR GCLP 131600Z 03027KT 9999 FEW035 25/18 Q1013 NOSIG
16:30
V
25 °C 10 km+ - 020° 020° 26 kt METAR GCLP 131530Z 02026KT 9999 FEW035 25/18 Q1013 NOSIG
16:00
V
25 °C 10 km+ - 030° 030° 26 kt METAR GCLP 131500Z 03026KT 9999 FEW035 25/18 Q1013 NOSIG
15:30
V
26 °C 10 km+ - 030° 030° 27 kt METAR GCLP 131430Z 03027KT 9999 FEW035 26/18 Q1013 NOSIG
15:00
V
26 °C 10 km+ - 030° 030° 26 kt METAR GCLP 131400Z 03026KT 9999 FEW030 26/19 Q1014 NOSIG
14:30
V
26 °C 10 km+ - 030° 030° 25 kt METAR GCLP 131330Z 03025KT 9999 FEW030 26/19 Q1014 NOSIG
14:00
V
25 °C 10 km+ - 030° 030° 25 kt METAR GCLP 131300Z 03025KT 9999 FEW020 25/18 Q1014 NOSIG
13:30
V
25 °C 10 km+ - 030° 030° 24 kt METAR GCLP 131230Z 03024KT 9999 FEW020 25/18 Q1014 NOSIG
13:00
V
25 °C 10 km+ - 030° 030° 25 kt METAR GCLP 131200Z 03025KT 9999 FEW020 25/19 Q1014 NOSIG
12:30
V
25 °C 10 km+ - 030° 030° 26 kt METAR GCLP 131130Z 03026KT 9999 FEW020 25/19 Q1014 NOSIG
12:00
V
25 °C 10 km+ - 030° 030° 26 kt METAR GCLP 131100Z 03026KT 350V050 9999 FEW020 25/19 Q1014 NOSIG
11:30
V
25 °C 10 km+ - 020° 020° 23 kt METAR GCLP 131030Z 02023KT 9999 FEW020 25/18 Q1013 NOSIG
11:00
V
25 °C 10 km+ - 030° 030° 25 kt METAR GCLP 131000Z 03025KT 9999 FEW020 25/18 Q1014 NOSIG
10:30
V
25 °C 10 km+ - 020° 020° 21 kt METAR GCLP 130930Z 02021KT 9999 FEW020 25/18 Q1014 NOSIG
10:00
V
24 °C 10 km+ - 020° 020° 20 kt METAR GCLP 130900Z 02020KT 9999 FEW020 24/18 Q1014 NOSIG
09:30
V
23 °C 10 km+ - 010° 010° 22 kt METAR GCLP 130830Z 01022KT 9999 FEW020 23/18 Q1014 NOSIG
09:00
V
22 °C 10 km+ - 010° 010° 23 kt METAR GCLP 130800Z 01023KT 9999 FEW020 22/18 Q1014 NOSIG
08:30
V
21 °C 10 km+ - 020° 020° 23 kt METAR GCLP 130730Z 02023KT 9999 FEW020 21/18 Q1014 NOSIG
08:00
V
21 °C 10 km+ - 020° 020° 22 kt METAR GCLP 130700Z 02022KT 9999 FEW020 21/18 Q1013 NOSIG
07:30
V
21 °C 10 km+ - 020° 020° 22 kt METAR GCLP 130630Z 02022KT 9999 FEW020 21/18 Q1014 NOSIG
07:00
V
21 °C 10 km+ - 020° 020° 20 kt METAR GCLP 130600Z 02020KT 9999 FEW020 21/17 Q1014 NOSIG
Zgłoś zmianę